Time;durP1;ratioP1;P1;durP2;ratioP2;P2;SDS_P1;SDS_P2;PMS_P1;PMS_P2;Temp;Humidity;BMP_temperature;BMP_pressure;BME280_temperature;BME280_humidity;BME280_pressure;Samples;Min_cycle;Max_cycle;Signal;HPM_P1;HPM_P2
2022/09/24 00:01:10;;;;;;;10.03;8.20;;;12.90;99.90;;;;;;5051243;28;20458;-82
2022/09/24 00:03:36;;;;;;;9.00;8.20;;;12.90;99.90;;;;;;5042070;28;20998;-81
2022/09/24 00:06:05;;;;;;;9.03;8.33;;;12.90;99.90;;;;;;5042901;28;20441;-82
2022/09/24 00:08:32;;;;;;;9.53;8.13;;;12.90;99.90;;;;;;5042120;28;20449;-82
2022/09/24 00:11:02;;;;;;;7.43;6.73;;;13.00;99.90;;;;;;5042408;28;20485;-82
2022/09/24 00:13:31;;;;;;;9.47;8.77;;;12.90;99.90;;;;;;5040678;28;20475;-81
2022/09/24 00:16:02;;;;;;;10.70;9.83;;;13.00;99.90;;;;;;5042583;28;20453;-81
2022/09/24 00:18:29;;;;;;;9.93;9.03;;;13.00;99.90;;;;;;5042011;28;20445;-82
2022/09/24 00:20:56;;;;;;;10.60;9.60;;;13.00;99.90;;;;;;5041320;28;20452;-82
2022/09/24 00:23:23;;;;;;;10.50;9.60;;;13.00;99.90;;;;;;5041186;28;20872;-82
2022/09/24 00:28:41;;;;;;;9.40;8.60;;;13.00;99.90;;;;;;5024861;28;20444;-81
2022/09/24 00:31:08;;;;;;;9.83;9.00;;;13.00;99.90;;;;;;5041103;28;20477;-81
2022/09/24 00:33:35;;;;;;;10.77;9.70;;;13.00;99.90;;;;;;5040832;28;20480;-81
2022/09/24 00:36:04;;;;;;;9.50;8.80;;;13.00;99.90;;;;;;5041829;28;20453;-82
2022/09/24 00:38:32;;;;;;;10.27;9.27;;;13.00;99.90;;;;;;5039565;28;20457;-80
2022/09/24 00:40:59;;;;;;;9.07;8.37;;;12.90;99.90;;;;;;5037490;28;20973;-81
2022/09/24 00:43:28;;;;;;;9.80;9.00;;;12.90;99.90;;;;;;5036938;28;20527;-81
2022/09/24 00:46:00;;;;;;;8.57;7.93;;;12.90;99.90;;;;;;5036960;28;20859;-81
2022/09/24 00:48:27;;;;;;;10.00;9.20;;;12.90;99.90;;;;;;5036934;28;20457;-80
2022/09/24 00:50:55;;;;;;;9.70;8.80;;;12.90;99.90;;;;;;5037146;28;20453;-81
2022/09/24 00:53:27;;;;;;;14.13;8.43;;;12.80;99.90;;;;;;5038766;28;20465;-80
2022/09/24 00:55:55;;;;;;;9.43;8.70;;;12.90;99.90;;;;;;5048164;28;20445;-81
2022/09/24 00:58:23;;;;;;;9.60;8.80;;;12.80;99.90;;;;;;5036181;28;20460;-81
2022/09/24 01:00:55;;;;;;;8.90;8.10;;;12.80;99.90;;;;;;5036635;28;20961;-82
2022/09/24 01:03:25;;;;;;;9.00;8.20;;;12.70;99.90;;;;;;5036600;28;20469;-81
2022/09/24 01:05:52;;;;;;;10.83;9.90;;;12.70;99.90;;;;;;5036674;28;20484;-81
2022/09/24 01:08:20;;;;;;;9.87;9.17;;;12.70;99.90;;;;;;5036240;28;20465;-81
2022/09/24 01:11:02;;;;;;;9.70;8.90;;;12.60;99.90;;;;;;5036238;28;20456;-81
2022/09/24 01:13:40;;;;;;;8.93;8.10;;;12.60;99.90;;;;;;5036700;28;20481;-81
2022/09/24 01:16:14;;;;;;;9.20;8.40;;;12.50;99.90;;;;;;5036303;28;20458;-80
2022/09/24 01:18:50;;;;;;;9.67;8.83;;;12.50;99.90;;;;;;5017479;28;20461;-81
2022/09/24 01:21:27;;;;;;;11.77;10.70;;;12.40;99.90;;;;;;5035664;28;20456;-81
2022/09/24 01:24:17;;;;;;;9.50;8.80;;;12.40;99.90;;;;;;5036032;28;20809;-80
2022/09/24 01:26:57;;;;;;;9.37;8.47;;;12.30;99.90;;;;;;5035991;28;20450;-81
2022/09/24 01:29:45;;;;;;;8.83;8.13;;;12.30;99.90;;;;;;5036107;28;20831;-82
2022/09/24 01:32:18;;;;;;;8.80;8.00;;;12.30;99.90;;;;;;5035985;28;20481;-81
2022/09/24 01:34:49;;;;;;;9.73;8.90;;;12.20;99.90;;;;;;5036368;28;21025;-81
2022/09/24 01:37:21;;;;;;;14.13;9.90;;;12.20;99.90;;;;;;5035486;28;20464;-81
2022/09/24 01:39:50;;;;;;;9.10;8.40;;;12.20;99.90;;;;;;5036113;28;20506;-81
2022/09/24 01:42:19;;;;;;;9.60;8.90;;;12.10;99.90;;;;;;5035495;28;20464;-80
2022/09/24 01:44:48;;;;;;;9.57;8.77;;;12.10;99.90;;;;;;5035429;28;20449;-81
2022/09/24 01:47:21;;;;;;;9.37;8.67;;;12.00;99.90;;;;;;5036227;28;20472;-81
2022/09/24 01:49:50;;;;;;;8.87;8.10;;;12.00;99.90;;;;;;5047859;28;20468;-81
2022/09/24 01:52:25;;;;;;;10.57;9.73;;;11.90;99.90;;;;;;5036115;28;20515;-81
2022/09/24 01:54:54;;;;;;;9.70;8.80;;;11.90;99.90;;;;;;5035089;28;20452;-81
2022/09/24 01:57:24;;;;;;;9.90;9.07;;;11.90;99.90;;;;;;5035546;28;20468;-81
2022/09/24 01:59:57;;;;;;;11.73;9.80;;;11.80;99.90;;;;;;5035907;28;20449;-81
2022/09/24 02:02:28;;;;;;;10.17;8.90;;;11.80;99.90;;;;;;5035805;28;20469;-81
2022/09/24 02:05:00;;;;;;;11.07;10.07;;;11.70;99.90;;;;;;5035057;28;20965;-80
2022/09/24 02:07:32;;;;;;;10.30;9.40;;;11.70;99.90;;;;;;5035004;28;20966;-81
2022/09/24 02:09:59;;;;;;;11.07;9.87;;;11.70;99.90;;;;;;5035444;28;20453;-81
2022/09/24 02:12:31;;;;;;;10.90;9.80;;;11.70;99.90;;;;;;5035326;28;21006;-81
2022/09/24 02:15:05;;;;;;;10.67;9.60;;;11.70;99.90;;;;;;5035602;28;20445;-81
2022/09/24 02:17:36;;;;;;;11.57;10.43;;;11.70;99.90;;;;;;5034849;28;20469;-80
2022/09/24 02:20:07;;;;;;;9.63;8.83;;;11.70;99.90;;;;;;5034763;28;20456;-81
2022/09/24 02:22:34;;;;;;;9.77;9.07;;;11.70;99.90;;;;;;5033795;28;20468;-79
2022/09/24 02:25:03;;;;;;;10.63;9.57;;;11.70;99.90;;;;;;5033376;28;20457;-79
2022/09/24 02:27:31;;;;;;;11.07;10.17;;;11.70;99.90;;;;;;5036044;28;20455;-79
2022/09/24 02:30:00;;;;;;;9.83;8.90;;;11.70;99.90;;;;;;5053255;28;20451;-80
2022/09/24 02:32:30;;;;;;;10.57;9.63;;;11.70;99.90;;;;;;5053291;28;20487;-80
2022/09/24 02:35:02;;;;;;;10.50;9.60;;;11.70;99.90;;;;;;5052060;28;20458;-79
2022/09/24 02:37:29;;;;;;;10.70;9.60;;;11.80;99.90;;;;;;5035709;28;20540;-78
2022/09/24 02:39:56;;;;;;;10.37;9.47;;;11.80;99.90;;;;;;5034719;28;20453;-78
2022/09/24 02:42:23;;;;;;;11.03;10.10;;;11.80;99.90;;;;;;5035182;28;20469;-79
2022/09/24 02:44:51;;;;;;;12.00;11.00;;;11.80;99.90;;;;;;5034738;28;20457;-79
2022/09/24 02:47:19;;;;;;;12.10;11.10;;;11.80;99.90;;;;;;5034548;28;20460;-78
2022/09/24 02:49:45;;;;;;;10.10;9.30;;;11.90;99.90;;;;;;5034607;28;20450;-78
2022/09/24 02:52:12;;;;;;;11.80;10.73;;;11.90;99.90;;;;;;5035040;28;20520;-79
2022/09/24 02:54:39;;;;;;;10.70;9.70;;;11.90;99.90;;;;;;5035154;28;20950;-78
2022/09/24 02:57:06;;;;;;;11.13;10.13;;;11.90;99.90;;;;;;5034215;28;20464;-79
2022/09/24 02:59:33;;;;;;;11.17;10.10;;;12.00;99.90;;;;;;5033911;28;20449;-79
2022/09/24 03:02:00;;;;;;;12.80;11.70;;;12.00;99.90;;;;;;5034379;28;20453;-78
2022/09/24 03:04:29;;;;;;;11.30;10.40;;;12.00;99.90;;;;;;5033777;28;20460;-79
2022/09/24 03:06:56;;;;;;;11.70;10.57;;;12.00;99.90;;;;;;5034357;28;20464;-79
2022/09/24 03:09:23;;;;;;;11.40;10.40;;;12.10;99.90;;;;;;5032819;28;20459;-79
2022/09/24 03:11:50;;;;;;;12.07;11.07;;;12.10;99.90;;;;;;5034029;28;20853;-79
2022/09/24 03:14:16;;;;;;;11.80;10.60;;;12.20;99.90;;;;;;5032986;28;20465;-79
2022/09/24 03:16:43;;;;;;;12.70;11.50;;;12.20;99.90;;;;;;5034242;28;20453;-79
2022/09/24 03:19:10;;;;;;;13.53;12.27;;;12.30;99.90;;;;;;5034089;28;20457;-78
2022/09/24 03:21:38;;;;;;;11.53;10.53;;;12.30;99.90;;;;;;5034592;28;20781;-79
2022/09/24 03:24:05;;;;;;;12.80;11.57;;;12.40;99.90;;;;;;5034931;28;20473;-79
2022/09/24 03:26:32;;;;;;;11.87;10.63;;;12.40;99.90;;;;;;5034447;28;20460;-79
2022/09/24 03:28:58;;;;;;;11.97;10.87;;;12.40;99.90;;;;;;5033932;28;20943;-78
2022/09/24 03:31:24;;;;;;;12.80;11.70;;;12.50;99.90;;;;;;5034502;28;21084;-78
2022/09/24 03:33:51;;;;;;;12.60;11.47;;;12.50;99.90;;;;;;5033839;28;20485;-79
2022/09/24 03:36:21;;;;;;;11.93;10.77;;;12.50;99.90;;;;;;5034260;28;20267;-79
2022/09/24 03:38:50;;;;;;;13.10;11.23;;;12.60;99.90;;;;;;5030331;28;20488;-78
2022/09/24 03:41:18;;;;;;;12.43;11.33;;;12.60;99.90;;;;;;5031783;28;20464;-78
2022/09/24 03:43:44;;;;;;;11.07;10.00;;;12.60;99.90;;;;;;5031418;28;20492;-78
2022/09/24 03:46:12;;;;;;;11.27;10.27;;;12.60;99.90;;;;;;5033443;28;20456;-79
2022/09/24 03:48:40;;;;;;;10.57;9.87;;;12.70;99.90;;;;;;5035617;28;20448;-77
2022/09/24 03:51:09;;;;;;;11.87;10.90;;;12.70;99.90;;;;;;5038060;28;20452;-77
2022/09/24 03:53:36;;;;;;;12.80;11.67;;;12.70;99.90;;;;;;5037618;28;20489;-78
2022/09/24 03:56:05;;;;;;;12.13;11.10;;;12.80;99.90;;;;;;5037147;28;20453;-78
2022/09/24 03:58:34;;;;;;;11.93;10.70;;;12.80;99.90;;;;;;5036735;28;20503;-79
2022/09/24 04:01:02;;;;;;;11.20;10.30;;;12.80;99.90;;;;;;5035274;28;20521;-79
2022/09/24 04:03:28;;;;;;;14.00;12.70;;;12.80;99.90;;;;;;5035249;28;20474;-78
2022/09/24 04:05:55;;;;;;;12.43;11.33;;;12.90;99.90;;;;;;5037413;28;20457;-78
2022/09/24 04:08:23;;;;;;;13.27;12.10;;;12.90;99.90;;;;;;5036025;28;20484;-78
2022/09/24 04:10:50;;;;;;;12.70;9.90;;;12.90;99.90;;;;;;5037635;28;20449;-78
2022/09/24 04:13:19;;;;;;;11.20;10.03;;;12.90;99.90;;;;;;5036604;28;20500;-79
2022/09/24 04:15:47;;;;;;;11.80;10.77;;;12.90;99.90;;;;;;5036126;28;20956;-78
2022/09/24 04:18:14;;;;;;;10.57;9.70;;;12.90;99.90;;;;;;5034598;28;20846;-79
2022/09/24 04:20:41;;;;;;;12.03;10.87;;;12.90;99.90;;;;;;5034980;28;20845;-78
2022/09/24 04:23:09;;;;;;;10.83;10.10;;;12.90;99.90;;;;;;5034515;28;20523;-79
2022/09/24 04:25:37;;;;;;;10.77;9.87;;;13.00;99.90;;;;;;5035091;28;20453;-80
2022/09/24 04:28:05;;;;;;;11.73;10.80;;;13.00;99.90;;;;;;5034295;28;20457;-80
2022/09/24 04:30:34;;;;;;;10.93;10.03;;;13.00;99.90;;;;;;5034559;28;20477;-81
2022/09/24 04:33:01;;;;;;;11.77;10.67;;;13.00;99.90;;;;;;5033462;28;21001;-80
2022/09/24 04:35:31;;;;;;;11.10;10.17;;;13.10;99.90;;;;;;5034686;28;20460;-80
2022/09/24 04:37:59;;;;;;;11.90;10.70;;;13.10;99.90;;;;;;5033783;28;20453;-80
2022/09/24 04:40:26;;;;;;;12.60;11.50;;;13.10;99.90;;;;;;5034925;28;20460;-80
2022/09/24 04:42:53;;;;;;;10.87;9.87;;;13.10;99.90;;;;;;5034151;28;20987;-80
2022/09/24 04:45:22;;;;;;;11.27;10.20;;;13.10;99.90;;;;;;5035952;28;20504;-78
2022/09/24 04:47:52;;;;;;;12.03;10.90;;;13.20;99.90;;;;;;5035637;28;21169;-78
2022/09/24 04:50:19;;;;;;;12.03;10.80;;;13.10;99.90;;;;;;5036648;28;20456;-77
2022/09/24 04:52:46;;;;;;;13.13;11.93;;;13.10;99.90;;;;;;5035807;28;20492;-77
2022/09/24 04:55:13;;;;;;;12.43;11.37;;;13.10;99.90;;;;;;5036608;28;20461;-78
2022/09/24 04:57:40;;;;;;;13.10;11.63;;;13.10;99.90;;;;;;5034553;28;20875;-79
2022/09/24 05:00:13;;;;;;;13.50;12.30;;;13.10;99.90;;;;;;5035618;28;20461;-78
2022/09/24 05:02:40;;;;;;;12.40;11.40;;;13.10;99.90;;;;;;5035060;28;20556;-78
2022/09/24 05:05:09;;;;;;;10.77;9.87;;;13.10;99.90;;;;;;5034099;28;20481;-78
2022/09/24 05:07:36;;;;;;;12.20;11.00;;;13.10;99.90;;;;;;5033084;28;20468;-79
2022/09/24 05:10:05;;;;;;;11.17;10.30;;;13.00;99.90;;;;;;5033832;28;20460;-78
2022/09/24 05:12:32;;;;;;;11.40;9.87;;;13.00;99.90;;;;;;5033705;28;20489;-79
2022/09/24 05:14:58;;;;;;;11.43;10.30;;;12.90;99.90;;;;;;5034119;28;20457;-78
2022/09/24 05:17:25;;;;;;;11.90;10.90;;;12.90;99.90;;;;;;5033525;28;20460;-78
2022/09/24 05:19:52;;;;;;;12.33;11.33;;;12.80;99.90;;;;;;5033598;28;20446;-79
2022/09/24 05:22:20;;;;;;;12.50;11.30;;;12.80;99.90;;;;;;5033447;28;20477;-78
2022/09/24 05:24:47;;;;;;;11.83;10.60;;;12.80;99.90;;;;;;5033447;28;20445;-80
2022/09/24 05:27:12;;;;;;;12.40;11.10;;;12.80;99.90;;;;;;5033414;28;20958;-79
2022/09/24 05:29:41;;;;;;;11.03;9.93;;;12.80;99.90;;;;;;5033402;28;20449;-78
2022/09/24 05:32:09;;;;;;;13.27;12.07;;;12.80;99.90;;;;;;5033248;28;20244;-77
2022/09/24 05:34:36;;;;;;;12.07;10.97;;;12.80;99.90;;;;;;5036147;28;20453;-78
2022/09/24 05:37:04;;;;;;;12.50;11.53;;;12.80;99.90;;;;;;5035548;28;20804;-79
2022/09/24 05:39:32;;;;;;;12.80;11.50;;;12.80;99.90;;;;;;5035525;28;20445;-78
2022/09/24 05:41:59;;;;;;;12.40;11.43;;;12.80;99.90;;;;;;5035527;28;20458;-78
2022/09/24 05:44:26;;;;;;;13.27;12.03;;;12.80;99.90;;;;;;5034518;28;20816;-78
2022/09/24 05:46:53;;;;;;;14.00;12.67;;;12.80;99.90;;;;;;5032592;28;20454;-79
2022/09/24 05:49:19;;;;;;;13.53;12.23;;;12.90;99.90;;;;;;5033033;28;20456;-79
2022/09/24 05:51:49;;;;;;;13.37;12.27;;;12.90;99.90;;;;;;5033243;28;20954;-79
2022/09/24 05:54:16;;;;;;;15.03;13.63;;;12.90;99.90;;;;;;5034576;28;20542;-78
2022/09/24 05:56:44;;;;;;;13.10;11.80;;;12.90;99.90;;;;;;5034048;28;20545;-78
2022/09/24 05:59:11;;;;;;;12.90;11.60;;;12.90;99.90;;;;;;5033848;28;20452;-78
2022/09/24 06:01:38;;;;;;;13.80;12.60;;;12.90;99.90;;;;;;5033959;28;20579;-78
2022/09/24 06:04:05;;;;;;;12.83;11.50;;;12.90;99.90;;;;;;5034436;28;20812;-79
2022/09/24 06:06:32;;;;;;;12.33;11.13;;;13.00;99.90;;;;;;5034383;28;20457;-79
2022/09/24 06:08:58;;;;;;;14.23;12.20;;;13.00;99.90;;;;;;5033702;28;20450;-78
2022/09/24 06:11:26;;;;;;;13.80;12.67;;;13.00;99.90;;;;;;5033067;28;20460;-78
2022/09/24 06:13:55;;;;;;;14.57;12.20;;;13.10;99.90;;;;;;5033624;28;20484;-78
2022/09/24 06:16:22;;;;;;;13.33;12.03;;;13.20;99.90;;;;;;5034241;28;20454;-79
2022/09/24 06:18:48;;;;;;;13.13;11.97;;;13.20;99.90;;;;;;5033580;28;20789;-78
2022/09/24 06:21:17;;;;;;;12.23;11.23;;;13.30;99.90;;;;;;5034193;28;20461;-79
2022/09/24 06:23:45;;;;;;;13.17;12.10;;;13.30;99.90;;;;;;5034403;28;20527;-78
2022/09/24 06:26:13;;;;;;;14.70;13.30;;;13.40;99.90;;;;;;5034024;28;20480;-78
2022/09/24 06:28:41;;;;;;;20.07;14.00;;;13.40;99.90;;;;;;5033884;28;20505;-78
2022/09/24 06:31:11;;;;;;;15.47;14.07;;;13.50;99.90;;;;;;5034468;28;20453;-78
2022/09/24 06:33:39;;;;;;;16.37;13.70;;;13.50;99.90;;;;;;5033772;28;20485;-79
2022/09/24 06:36:06;;;;;;;14.37;13.03;;;13.60;99.90;;;;;;5034610;28;20453;-79
2022/09/24 06:38:34;;;;;;;12.47;11.27;;;13.80;99.90;;;;;;5034972;28;20887;-80
2022/09/24 06:41:02;;;;;;;14.00;12.60;;;13.90;99.90;;;;;;5035937;28;20465;-79
2022/09/24 06:43:29;;;;;;;11.60;10.57;;;14.00;99.90;;;;;;5035880;28;20470;-79
2022/09/24 06:45:56;;;;;;;11.07;9.80;;;14.10;99.90;;;;;;5034923;28;20452;-79
2022/09/24 06:48:26;;;;;;;10.77;9.87;;;14.20;99.90;;;;;;5033378;28;20478;-78
2022/09/24 06:50:53;;;;;;;11.20;10.20;;;14.30;99.90;;;;;;5034612;28;20581;-78
2022/09/24 06:53:20;;;;;;;11.80;9.27;;;14.30;99.90;;;;;;5034027;28;21079;-78
2022/09/24 06:55:47;;;;;;;11.30;10.20;;;14.40;99.90;;;;;;5035039;28;20451;-80
2022/09/24 06:58:16;;;;;;;10.83;9.90;;;14.40;99.90;;;;;;5035543;28;20539;-82
2022/09/24 07:00:49;;;;;;;11.27;10.17;;;14.40;99.90;;;;;;5035935;28;20512;-80
2022/09/24 07:03:16;;;;;;;9.90;9.00;;;14.50;99.90;;;;;;5034230;28;20480;-80
2022/09/24 07:05:44;;;;;;;9.13;8.43;;;14.60;99.90;;;;;;5033791;28;20457;-80
2022/09/24 07:08:11;;;;;;;10.00;9.00;;;14.60;99.90;;;;;;5034229;28;20450;-80
2022/09/24 07:10:41;;;;;;;10.40;9.60;;;14.70;99.90;;;;;;5033709;28;20453;-80
2022/09/24 07:13:08;;;;;;;8.90;8.20;;;14.80;99.90;;;;;;5032919;28;20489;-79
2022/09/24 07:15:34;;;;;;;10.90;9.90;;;14.80;99.90;;;;;;5032146;28;20468;-80
2022/09/24 07:18:01;;;;;;;9.53;8.73;;;14.90;99.90;;;;;;5031465;28;20457;-80
2022/09/24 07:20:28;;;;;;;10.93;9.93;;;15.00;99.90;;;;;;5032476;28;20459;-79
2022/09/24 07:22:56;;;;;;;9.40;8.60;;;14.90;99.90;;;;;;5048075;28;20471;-80
2022/09/24 07:25:23;;;;;;;9.07;8.27;;;15.00;99.90;;;;;;5051536;28;20458;-80
2022/09/24 07:27:50;;;;;;;9.60;8.80;;;15.10;99.90;;;;;;5035476;28;20459;-80
2022/09/24 07:30:17;;;;;;;8.40;7.70;;;15.20;99.90;;;;;;5035151;28;20868;-81
2022/09/24 07:32:44;;;;;;;9.40;8.77;;;15.20;99.90;;;;;;5035936;28;20843;-80
2022/09/24 07:35:10;;;;;;;9.57;8.67;;;15.40;99.90;;;;;;5035769;28;20451;-80
2022/09/24 07:37:37;;;;;;;9.93;9.23;;;15.40;99.90;;;;;;5035310;28;20462;-79
2022/09/24 07:40:06;;;;;;;8.90;8.20;;;15.50;99.90;;;;;;5035035;28;20461;-81
2022/09/24 07:42:33;;;;;;;9.00;8.20;;;15.60;99.90;;;;;;5034880;28;20470;-79
2022/09/24 07:45:00;;;;;;;10.30;9.40;;;15.70;99.90;;;;;;5035203;28;20481;-80
2022/09/24 07:47:26;;;;;;;9.70;8.80;;;15.80;99.90;;;;;;5035209;28;20478;-80
2022/09/24 07:49:53;;;;;;;9.30;8.50;;;15.80;99.90;;;;;;5037073;28;20454;-80
2022/09/24 07:52:20;;;;;;;9.73;8.90;;;15.80;99.90;;;;;;5035246;28;20474;-80
2022/09/24 07:54:46;;;;;;;7.70;7.10;;;15.90;99.90;;;;;;5035201;28;20952;-80
2022/09/24 07:57:14;;;;;;;10.90;7.77;;;15.80;99.90;;;;;;5043200;28;20470;-80
2022/09/24 07:59:43;;;;;;;8.70;8.00;;;15.80;99.90;;;;;;5041909;28;20450;-80
2022/09/24 08:02:15;;;;;;;8.53;7.83;;;15.90;99.90;;;;;;5041387;28;20447;-80
2022/09/24 08:04:42;;;;;;;7.50;6.90;;;15.90;99.90;;;;;;5040879;28;20506;-79
2022/09/24 08:07:10;;;;;;;7.93;7.33;;;16.00;99.90;;;;;;5041167;28;20445;-80
2022/09/24 08:09:37;;;;;;;6.80;6.23;;;16.10;99.90;;;;;;5051618;28;20441;-78
2022/09/24 08:12:04;;;;;;;6.83;6.17;;;16.20;99.90;;;;;;5050111;28;20861;-78
2022/09/24 08:14:32;;;;;;;6.27;5.77;;;16.30;99.90;;;;;;5051849;28;20487;-79
2022/09/24 08:16:59;;;;;;;7.37;6.87;;;16.30;99.90;;;;;;5049151;28;20821;-79
2022/09/24 08:19:27;;;;;;;6.20;5.60;;;16.30;99.90;;;;;;5050709;28;20451;-78
2022/09/24 08:21:53;;;;;;;6.73;6.10;;;16.40;99.90;;;;;;5049533;28;20533;-79
2022/09/24 08:24:20;;;;;;;6.87;6.37;;;16.40;99.90;;;;;;5067053;28;20443;-80
2022/09/24 08:26:47;;;;;;;6.07;5.60;;;16.50;99.90;;;;;;5051558;28;20456;-79
2022/09/24 08:29:13;;;;;;;5.93;5.43;;;16.60;99.90;;;;;;5052105;28;20460;-78
2022/09/24 08:31:42;;;;;;;6.00;5.00;;;16.70;99.90;;;;;;5050062;28;20455;-79
2022/09/24 08:34:08;;;;;;;6.37;5.83;;;16.80;99.90;;;;;;5052614;28;20494;-79
2022/09/24 08:36:35;;;;;;;5.20;4.80;;;17.00;99.90;;;;;;5047946;28;20460;-80
2022/09/24 08:39:02;;;;;;;6.10;5.50;;;17.10;99.90;;;;;;5044134;28;20877;-79
2022/09/24 08:41:44;;;;;;;4.80;4.40;;;17.20;99.90;;;;;;5042476;28;20463;-80
2022/09/24 08:47:21;;;;;;;6.60;4.50;;;17.20;99.90;;;;;;5040182;28;20483;-79
2022/09/24 08:47:24;;;;;;;4.50;4.10;;;17.10;99.90;;;;;;5041057;28;20464;-80
2022/09/24 08:50:06;;;;;;;5.03;4.70;;;17.10;99.90;;;;;;5040587;28;20823;-79
2022/09/24 08:52:48;;;;;;;5.77;5.23;;;17.10;99.90;;;;;;5041095;28;21080;-79
2022/09/24 08:55:20;;;;;;;5.03;4.63;;;17.00;99.90;;;;;;5040423;28;20832;-80
2022/09/24 08:58:02;;;;;;;4.60;4.30;;;16.90;99.90;;;;;;5039534;28;20486;-79
2022/09/24 09:00:34;;;;;;;5.53;5.13;;;17.00;99.90;;;;;;5039786;28;20456;-79
2022/09/24 09:03:09;;;;;;;5.73;5.20;;;17.00;99.90;;;;;;5040396;28;20479;-79
2022/09/24 09:05:53;;;;;;;6.20;5.80;;;17.10;99.90;;;;;;5047974;28;20439;-79
2022/09/24 09:08:29;;;;;;;5.90;5.47;;;17.20;99.90;;;;;;5040693;28;20444;-79
2022/09/24 09:11:00;;;;;;;6.20;5.70;;;17.20;99.90;;;;;;5039516;28;20452;-79
2022/09/24 09:13:32;;;;;;;5.27;4.87;;;17.30;99.90;;;;;;5039490;28;20476;-79
2022/09/24 09:16:05;;;;;;;5.40;5.00;;;17.10;99.90;;;;;;5039499;28;20463;-79
2022/09/24 09:18:37;;;;;;;5.63;5.13;;;17.10;99.90;;;;;;5038956;28;20507;-80
2022/09/24 09:21:13;;;;;;;5.40;5.10;;;17.20;99.90;;;;;;5038922;28;20959;-79
2022/09/24 09:23:47;;;;;;;5.50;5.00;;;17.20;99.90;;;;;;5038393;28;20471;-79
2022/09/24 09:26:15;;;;;;;6.40;6.00;;;17.20;99.90;;;;;;5038189;28;20452;-80
2022/09/24 09:28:42;;;;;;;6.37;5.90;;;17.20;99.90;;;;;;5037149;28;20457;-79
2022/09/24 09:31:23;;;;;;;5.87;5.47;;;17.20;99.90;;;;;;5037150;28;20459;-79
2022/09/24 09:34:09;;;;;;;6.97;6.00;;;17.20;99.90;;;;;;5037023;28;20993;-79
2022/09/24 09:36:51;;;;;;;6.00;5.50;;;17.10;99.90;;;;;;5038359;28;20456;-79
2022/09/24 09:39:32;;;;;;;6.00;5.60;;;17.10;99.90;;;;;;5038042;28;20488;-79
2022/09/24 09:42:08;;;;;;;7.17;6.57;;;17.10;99.90;;;;;;5039112;28;20476;-79
2022/09/24 09:44:41;;;;;;;6.20;5.70;;;17.20;99.90;;;;;;5038862;28;20456;-79
2022/09/24 09:47:19;;;;;;;6.33;5.83;;;17.20;99.90;;;;;;5039438;28;20456;-79
2022/09/24 09:49:50;;;;;;;7.40;6.70;;;17.20;99.90;;;;;;5039608;28;20925;-79
2022/09/24 09:52:20;;;;;;;6.17;5.67;;;17.30;99.90;;;;;;5039009;28;20476;-79
2022/09/24 09:54:47;;;;;;;5.87;5.37;;;17.40;99.90;;;;;;5040697;28;20488;-79
2022/09/24 09:57:17;;;;;;;6.23;5.73;;;17.40;99.90;;;;;;5043016;28;20503;-79
2022/09/24 09:59:47;;;;;;;6.70;6.10;;;17.40;99.90;;;;;;5043710;28;20519;-80
2022/09/24 10:02:22;;;;;;;6.37;5.87;;;17.50;99.90;;;;;;5053119;28;20432;-80
2022/09/24 10:04:54;;;;;;;5.50;5.10;;;17.50;99.90;;;;;;5043603;28;20448;-79
2022/09/24 10:07:21;;;;;;;5.40;5.07;;;17.60;99.90;;;;;;5042590;28;20454;-80
2022/09/24 10:09:59;;;;;;;5.03;4.73;;;17.70;99.90;;;;;;5043310;28;20452;-80
2022/09/24 10:12:27;;;;;;;5.27;4.77;;;17.70;99.90;;;;;;5043363;28;20515;-80
2022/09/24 10:15:02;;;;;;;4.70;4.40;;;17.70;99.90;;;;;;5045489;28;20491;-80
2022/09/24 10:17:33;;;;;;;4.10;3.70;;;17.80;99.90;;;;;;5045420;28;20452;-80
2022/09/24 10:20:07;;;;;;;4.93;4.53;;;17.90;99.90;;;;;;5045238;28;20459;-80
2022/09/24 10:22:36;;;;;;;4.30;3.90;;;18.00;99.90;;;;;;5044186;28;20479;-80
2022/09/24 10:25:04;;;;;;;4.23;3.93;;;18.00;99.90;;;;;;5043100;28;20444;-80
2022/09/24 10:27:34;;;;;;;4.30;4.00;;;17.80;99.90;;;;;;5043547;28;20486;-80
2022/09/24 10:32:55;;;;;;;4.33;3.93;;;17.70;99.90;;;;;;5046370;28;20503;-81
2022/09/24 10:35:27;;;;;;;3.53;3.27;;;17.60;99.90;;;;;;5047417;28;20489;-80
2022/09/24 10:37:56;;;;;;;4.40;4.00;;;17.40;99.90;;;;;;5046023;28;20527;-80
2022/09/24 10:40:27;;;;;;;4.60;4.20;;;17.40;99.90;;;;;;5043959;28;20455;-81
2022/09/24 10:43:01;;;;;;;3.37;2.70;;;17.30;99.90;;;;;;5043600;28;20511;-80
2022/09/24 10:45:43;;;;;;;3.40;3.07;;;17.30;99.90;;;;;;5033473;28;20454;-79
2022/09/24 10:48:17;;;;;;;4.03;3.73;;;17.30;99.90;;;;;;5039957;28;20957;-80
2022/09/24 10:50:54;;;;;;;3.50;3.20;;;17.20;99.90;;;;;;5057835;28;20458;-80
2022/09/24 10:53:31;;;;;;;3.80;3.50;;;17.20;99.90;;;;;;5061211;28;20478;-80
2022/09/24 10:56:05;;;;;;;4.10;3.80;;;17.10;99.90;;;;;;5062603;28;21019;-79
2022/09/24 10:58:52;;;;;;;4.37;4.10;;;17.10;99.90;;;;;;5069187;28;20456;-80
2022/09/24 11:01:26;;;;;;;4.17;3.87;;;17.00;99.90;;;;;;5044600;28;20456;-79
2022/09/24 11:04:44;;;;;;;4.10;3.80;;;16.90;99.90;;;;;;5049790;28;20474;-79
2022/09/24 11:07:34;;;;;;;5.83;5.33;;;16.90;99.90;;;;;;5017448;28;20821;-79
2022/09/24 11:10:09;;;;;;;4.10;3.80;;;16.80;99.90;;;;;;5037128;28;20936;-78
2022/09/24 11:12:46;;;;;;;3.97;3.67;;;16.90;99.90;;;;;;5044786;28;21041;-79
2022/09/24 11:15:25;;;;;;;4.23;3.93;;;17.00;99.90;;;;;;5040477;28;20487;-79
2022/09/24 11:18:07;;;;;;;5.23;4.83;;;16.90;99.90;;;;;;5041917;28;20452;-79
2022/09/24 11:20:37;;;;;;;6.03;5.57;;;17.00;99.90;;;;;;5041874;28;20883;-79
2022/09/24 11:23:33;;;;;;;5.37;4.97;;;17.00;99.90;;;;;;5043058;28;20497;-79
2022/09/24 11:26:12;;;;;;;5.70;4.07;;;17.10;99.90;;;;;;5045498;28;20448;-79
2022/09/24 11:29:03;;;;;;;4.93;4.57;;;17.10;99.90;;;;;;5046219;28;20964;-79
2022/09/24 11:31:38;;;;;;;4.73;4.17;;;17.20;99.90;;;;;;5052961;28;20448;-79
2022/09/24 11:34:26;;;;;;;4.30;4.00;;;17.30;99.90;;;;;;5051946;28;20464;-79
2022/09/24 11:37:06;;;;;;;5.20;4.80;;;17.30;99.90;;;;;;5054307;28;20447;-79
2022/09/24 11:39:47;;;;;;;6.30;5.80;;;17.40;99.90;;;;;;5054261;28;20452;-79
2022/09/24 11:42:21;;;;;;;5.13;4.83;;;17.40;99.90;;;;;;5052850;28;20459;-79
2022/09/24 11:45:21;;;;;;;5.07;4.67;;;17.50;99.90;;;;;;5054892;28;20447;-79
2022/09/24 11:48:07;;;;;;;4.77;4.47;;;17.50;99.90;;;;;;5048688;28;20445;-79
2022/09/24 11:50:45;;;;;;;6.40;4.87;;;17.60;99.90;;;;;;5059479;28;20455;-79
2022/09/24 11:53:15;;;;;;;5.30;4.90;;;17.70;99.90;;;;;;5059117;28;20475;-79
2022/09/24 11:55:50;;;;;;;8.03;5.20;;;17.80;99.90;;;;;;5059383;28;20487;-79
2022/09/24 11:58:20;;;;;;;5.90;5.43;;;17.90;99.90;;;;;;5058674;28;20474;-80
2022/09/24 12:00:52;;;;;;;5.43;4.93;;;18.00;99.90;;;;;;5057265;28;20443;-79
2022/09/24 12:03:23;;;;;;;5.10;4.70;;;18.00;99.90;;;;;;5051345;28;20502;-80
2022/09/24 12:05:56;;;;;;;4.73;4.37;;;18.00;99.90;;;;;;5048855;28;20449;-79
2022/09/24 12:08:28;;;;;;;6.33;5.10;;;18.00;99.90;;;;;;5050554;28;20794;-79
2022/09/24 12:11:02;;;;;;;5.70;5.20;;;18.00;99.90;;;;;;5046646;28;20478;-79
2022/09/24 12:13:34;;;;;;;5.57;5.07;;;17.90;99.90;;;;;;5048513;28;20530;-79
2022/09/24 12:16:06;;;;;;;5.23;4.93;;;18.00;99.90;;;;;;5052009;28;20484;-80
2022/09/24 12:18:39;;;;;;;5.67;5.27;;;18.00;99.90;;;;;;5048925;28;20529;-80
2022/09/24 12:21:09;;;;;;;5.87;5.40;;;18.10;99.90;;;;;;5050859;28;20449;-80
2022/09/24 12:23:39;;;;;;;6.30;5.80;;;18.20;99.90;;;;;;5047981;28;20473;-80
2022/09/24 12:26:08;;;;;;;5.60;5.20;;;18.20;99.90;;;;;;5049952;28;20448;-80
2022/09/24 12:34:29;;;;;;;5.43;5.10;;;18.20;99.90;;;;;;5045855;28;20451;-80
2022/09/24 12:37:02;;;;;;;5.57;5.10;;;18.20;99.90;;;;;;5046578;28;20460;-80
2022/09/24 12:39:35;;;;;;;6.63;6.00;;;18.30;99.90;;;;;;5052887;28;20453;-81
2022/09/24 12:42:08;;;;;;;6.50;5.97;;;18.30;99.90;;;;;;5046576;28;20812;-82
2022/09/24 12:44:42;;;;;;;5.83;5.43;;;18.30;99.90;;;;;;5059390;28;20891;-81
2022/09/24 12:47:19;;;;;;;7.70;6.30;;;18.30;99.90;;;;;;5053741;28;20458;-82
2022/09/24 12:49:51;;;;;;;5.37;4.97;;;18.30;99.90;;;;;;5050339;28;20448;-80
2022/09/24 12:52:24;;;;;;;7.20;6.60;;;18.30;99.90;;;;;;5049537;28;20478;-82
2022/09/24 12:54:57;;;;;;;6.13;5.67;;;18.30;99.90;;;;;;5051524;28;21055;-82
2022/09/24 12:57:27;;;;;;;6.63;6.03;;;18.40;99.90;;;;;;5057940;28;20833;-81
2022/09/24 12:59:56;;;;;;;6.20;5.70;;;18.30;99.90;;;;;;5048769;28;20453;-81
2022/09/24 13:02:25;;;;;;;6.60;6.10;;;18.40;99.90;;;;;;5049027;28;20838;-81
2022/09/24 13:05:05;;;;;;;6.20;5.70;;;18.40;99.90;;;;;;5040752;28;20460;-80
2022/09/24 13:07:34;;;;;;;5.10;4.70;;;18.50;99.90;;;;;;5046696;28;20446;-80